createdAt,value
2019-05-11T00:04:55.259Z,98595.91
2019-05-11T00:09:58.800Z,98592.36
2019-05-11T00:15:02.079Z,98594.24
2019-05-11T00:20:06.854Z,98584.69
2019-05-11T00:25:10.226Z,98585.73
2019-05-11T00:30:13.978Z,98573.00
2019-05-11T00:35:17.378Z,98561.52
2019-05-11T00:40:20.671Z,98546.91
2019-05-11T00:45:24.088Z,98546.33
2019-05-11T00:50:38.855Z,98540.59
2019-05-11T00:55:32.643Z,98520.23
2019-05-11T01:00:36.057Z,98519.92
2019-05-11T01:05:39.481Z,98516.91
2019-05-11T01:10:42.932Z,98520.45
2019-05-11T01:15:46.297Z,98524.52
2019-05-11T01:20:49.699Z,98523.47
2019-05-11T01:25:53.116Z,98509.91
2019-05-11T01:30:56.528Z,98516.63
2019-05-11T01:35:59.938Z,98519.34
2019-05-11T01:41:03.349Z,98526.88
2019-05-11T01:46:06.678Z,98527.39
2019-05-11T01:51:10.072Z,98523.84
2019-05-11T01:56:13.491Z,98510.06
2019-05-11T02:01:16.999Z,98516.02
2019-05-11T02:06:20.409Z,98512.16
2019-05-11T02:11:23.820Z,98508.09
2019-05-11T02:16:27.239Z,98507.81
2019-05-11T02:21:30.644Z,98503.50
2019-05-11T02:26:34.049Z,98493.42
2019-05-11T02:31:37.424Z,98484.23
2019-05-11T02:36:40.779Z,98481.95
2019-05-11T02:41:44.183Z,98466.20
2019-05-11T02:46:47.597Z,98462.95
2019-05-11T02:51:51.017Z,98472.18
2019-05-11T02:56:54.416Z,98475.11
2019-05-11T03:01:57.833Z,98476.52
2019-05-11T03:07:01.170Z,98473.75
2019-05-11T03:12:04.663Z,98461.85
2019-05-11T03:17:15.751Z,98462.37
2019-05-11T03:22:19.079Z,98470.73
2019-05-11T03:27:22.478Z,98460.66
2019-05-11T03:32:25.896Z,98471.27
2019-05-11T03:37:29.288Z,98463.89
2019-05-11T03:42:32.710Z,98472.34
2019-05-11T03:47:36.010Z,98469.63
2019-05-11T03:52:39.315Z,98474.13
2019-05-11T03:57:42.632Z,98481.00
2019-05-11T04:02:45.954Z,98474.75
2019-05-11T04:07:49.353Z,98468.19
2019-05-11T04:12:52.766Z,98474.13
2019-05-11T04:17:56.172Z,98459.73
2019-05-11T04:22:59.589Z,98456.81
2019-05-11T04:28:03.007Z,98456.59
2019-05-11T04:33:06.493Z,98451.99
2019-05-11T04:38:09.927Z,98457.17
2019-05-11T04:43:13.233Z,98453.41
2019-05-11T04:48:16.646Z,98459.66
2019-05-11T04:53:20.058Z,98459.88
2019-05-11T04:58:23.568Z,98458.30
2019-05-11T05:03:39.830Z,98448.20
2019-05-11T05:08:32.865Z,98430.34
2019-05-11T05:13:36.261Z,98430.87
2019-05-11T05:18:39.676Z,98432.53
2019-05-11T05:23:43.057Z,98429.45
2019-05-11T05:28:46.399Z,98427.33
2019-05-11T05:33:49.813Z,98427.41
2019-05-11T05:38:53.112Z,98425.75
2019-05-11T05:43:56.529Z,98425.50
2019-05-11T05:48:59.924Z,98416.30
2019-05-11T05:54:03.352Z,98407.64
2019-05-11T05:59:06.767Z,98403.05
2019-05-11T06:04:10.169Z,98400.50
2019-05-11T06:09:13.586Z,98395.38
2019-05-11T06:14:16.998Z,98397.48
2019-05-11T06:19:20.410Z,98405.70
2019-05-11T06:24:23.749Z,98397.09
2019-05-11T06:29:27.130Z,98390.97
2019-05-11T06:34:30.542Z,98382.36
2019-05-11T06:39:33.854Z,98370.50
2019-05-11T06:44:37.261Z,98367.80
2019-05-11T06:49:40.572Z,98363.24
2019-05-11T06:54:43.978Z,98360.61
2019-05-11T06:59:47.395Z,98361.27
2019-05-11T07:04:50.733Z,98363.55
2019-05-11T07:09:54.119Z,98359.18
2019-05-11T07:14:57.531Z,98362.03
2019-05-11T07:20:00.958Z,98360.80
2019-05-11T07:25:07.740Z,98360.14
2019-05-11T07:30:11.139Z,98354.19
2019-05-11T07:35:14.552Z,98360.27
2019-05-11T07:40:18.719Z,98359.66
2019-05-11T07:45:22.351Z,98364.87
2019-05-11T07:50:28.159Z,98368.16
2019-05-11T07:55:30.864Z,98368.14
2019-05-11T08:00:36.506Z,98378.58
2019-05-11T08:05:39.428Z,98366.31
2019-05-11T08:17:15.442Z,98369.03
2019-05-11T08:22:22.720Z,98376.42
2019-05-11T08:27:24.013Z,98378.83
2019-05-11T08:32:28.665Z,98378.30
2019-05-11T08:37:32.260Z,98383.05
2019-05-11T08:42:37.893Z,98388.83
2019-05-11T08:47:40.772Z,98391.05
2019-05-11T08:52:44.136Z,98389.95
2019-05-11T09:05:12.787Z,98368.34
2019-05-11T09:10:18.353Z,98381.11
2019-05-11T09:15:33.666Z,98374.38
2019-05-11T09:20:28.471Z,98365.80
2019-05-11T09:25:31.589Z,98359.66
2019-05-11T09:30:34.908Z,98358.12
2019-05-11T09:35:47.665Z,98350.64
2019-05-11T09:40:43.407Z,98355.54
2019-05-11T09:45:49.304Z,98358.83
2019-05-11T09:50:52.660Z,98369.94
2019-05-11T09:55:58.512Z,98379.83
2019-05-11T10:01:01.162Z,98383.55
2019-05-11T10:06:04.524Z,98391.00
2019-05-11T10:11:08.490Z,98389.39
2019-05-11T10:16:11.858Z,98379.63
2019-05-11T10:21:15.320Z,98371.39
2019-05-11T10:26:19.049Z,98370.86
2019-05-11T10:31:22.450Z,98363.72
2019-05-11T10:36:27.864Z,98358.08
2019-05-11T10:41:30.845Z,98346.03
2019-05-11T10:46:34.169Z,98332.86
2019-05-11T10:51:38.281Z,98330.72
2019-05-11T10:56:41.818Z,98318.13
2019-05-11T11:01:45.151Z,98311.02
2019-05-11T11:06:48.711Z,98318.06
2019-05-11T11:11:52.122Z,98309.73
2019-05-11T11:16:55.467Z,98307.73
2019-05-11T11:22:17.706Z,98303.67
2019-05-11T11:27:03.891Z,98299.67
2019-05-11T11:32:08.059Z,98291.80
2019-05-11T11:37:11.457Z,98290.91
2019-05-11T11:42:14.797Z,98283.20
2019-05-11T11:47:21.317Z,98281.66
2019-05-11T11:52:23.146Z,98271.03
2019-05-11T11:57:28.265Z,98266.98
2019-05-11T12:02:31.537Z,98263.77
2019-05-11T12:07:34.900Z,98262.63
2019-05-11T12:12:38.747Z,98259.03
2019-05-11T12:17:42.366Z,98255.54
2019-05-11T12:22:47.621Z,98255.28
2019-05-11T12:27:50.790Z,98260.19
2019-05-11T12:32:54.124Z,98255.63
2019-05-11T12:37:58.719Z,98253.25
2019-05-11T12:43:02.217Z,98252.91
2019-05-11T12:48:05.577Z,98258.00
2019-05-11T12:53:08.936Z,98253.86
2019-05-11T12:58:12.287Z,98255.66
2019-05-11T13:03:15.616Z,98259.62
2019-05-11T13:08:18.932Z,98264.16
2019-05-11T13:13:22.524Z,98259.70
2019-05-11T13:18:27.874Z,98264.03
2019-05-11T13:23:30.955Z,98262.84
2019-05-11T13:28:34.333Z,98249.33
2019-05-11T13:33:38.446Z,98246.05
2019-05-11T13:38:41.881Z,98243.25
2019-05-11T13:43:45.252Z,98246.57
2019-05-11T13:48:48.606Z,98249.14
2019-05-11T13:53:51.963Z,98249.97
2019-05-11T13:58:57.913Z,98256.20
2019-05-11T14:04:01.283Z,98250.95
2019-05-11T14:09:07.815Z,98243.33
2019-05-11T14:14:11.215Z,98238.58
2019-05-11T14:19:14.563Z,98236.84
2019-05-11T14:24:18.502Z,98235.48
2019-05-11T14:29:22.022Z,98240.80
2019-05-11T14:34:25.416Z,98240.80
2019-05-11T14:39:28.824Z,98247.81
2019-05-11T14:44:32.138Z,98252.91
2019-05-11T14:49:37.703Z,98259.28
2019-05-11T14:54:40.584Z,98254.03
2019-05-11T14:59:43.934Z,98255.38
2019-05-11T15:04:48.416Z,98259.45
2019-05-11T15:09:51.768Z,98271.52
2019-05-11T15:14:55.093Z,98291.58
2019-05-11T15:19:58.413Z,98294.41
2019-05-11T15:25:01.738Z,98298.41
2019-05-11T15:30:08.021Z,98295.94
2019-05-11T15:35:11.157Z,98289.61
2019-05-11T15:40:14.742Z,98280.41
2019-05-11T15:45:18.806Z,98287.33
2019-05-11T15:50:22.183Z,98288.02
2019-05-11T15:55:27.641Z,98282.77
2019-05-11T16:00:30.601Z,98283.83
2019-05-11T16:05:33.973Z,98284.84
2019-05-11T16:10:38.406Z,98299.72
2019-05-11T16:15:41.918Z,98327.34
2019-05-11T16:20:45.218Z,98348.10
2019-05-11T16:25:49.006Z,98362.50
2019-05-11T16:30:52.336Z,98353.39
2019-05-11T16:35:58.019Z,98365.61
2019-05-11T16:41:00.697Z,98373.48
2019-05-11T16:46:03.994Z,98381.16
2019-05-11T16:51:08.600Z,98384.09
2019-05-11T16:56:12.211Z,98398.95
2019-05-11T17:01:15.515Z,98396.56
2019-05-11T17:06:19.714Z,98400.47
2019-05-11T17:11:23.193Z,98412.45
2019-05-11T17:16:28.488Z,98431.53
2019-05-11T17:21:56.326Z,98434.83
2019-05-11T17:26:59.678Z,98439.01
2019-05-11T17:32:03.068Z,98434.84
2019-05-11T17:37:08.828Z,98442.76
2019-05-11T17:42:11.484Z,98454.87
2019-05-11T17:47:14.807Z,98465.31
2019-05-11T17:52:18.950Z,98486.22
2019-05-11T17:57:23.033Z,98483.98
2019-05-11T18:02:28.748Z,98493.78
2019-05-11T18:07:31.478Z,98506.98
2019-05-11T18:12:34.903Z,98521.73
2019-05-11T18:17:38.216Z,98530.52
2019-05-11T18:22:41.525Z,98543.05
2019-05-11T18:27:44.832Z,98557.30
2019-05-11T18:32:49.044Z,98566.79
2019-05-11T18:37:52.730Z,98578.57
2019-05-11T18:42:57.840Z,98592.19
2019-05-11T18:48:01.298Z,98605.16
2019-05-11T18:53:04.655Z,98619.03
2019-05-11T18:58:08.002Z,98629.62
2019-05-11T19:03:11.332Z,98639.70
2019-05-11T19:08:14.651Z,98645.44
2019-05-11T19:13:17.974Z,98645.81
2019-05-11T19:18:21.310Z,98637.52
2019-05-11T19:23:24.621Z,98647.78
2019-05-11T19:28:28.279Z,98651.33
2019-05-11T19:33:31.642Z,98663.69
2019-05-11T19:38:35.048Z,98666.76
2019-05-11T19:43:38.449Z,98662.94
2019-05-11T19:48:41.782Z,98669.33
2019-05-11T19:53:45.119Z,98675.05
2019-05-11T19:58:48.625Z,98681.83
2019-05-11T20:03:51.965Z,98706.84
2019-05-11T20:08:55.304Z,98734.28
2019-05-11T20:13:59.087Z,98740.75
2019-05-11T20:19:02.480Z,98753.55
2019-05-11T20:24:08.335Z,98765.63
2019-05-11T20:29:10.968Z,98778.34
2019-05-11T20:34:14.318Z,98799.05
2019-05-11T20:39:17.989Z,98806.61
2019-05-11T20:44:21.381Z,98822.89
2019-05-11T20:49:24.772Z,98824.24
2019-05-11T20:54:28.272Z,98834.53
2019-05-11T20:59:31.576Z,98847.42
2019-05-11T21:04:34.860Z,98862.62
2019-05-11T21:09:38.152Z,98861.19
2019-05-11T21:14:42.130Z,98875.13
2019-05-11T21:19:47.769Z,98885.55
2019-05-11T21:24:50.516Z,98908.70
2019-05-11T21:29:53.868Z,98907.98
2019-05-11T21:34:58.417Z,98912.56
2019-05-11T21:40:02.185Z,98919.88
2019-05-11T21:45:08.403Z,98920.08
2019-05-11T21:50:11.883Z,98921.04
2019-05-11T21:55:15.224Z,98926.02
2019-05-11T22:00:18.956Z,98930.22
2019-05-11T22:05:22.381Z,98951.59
2019-05-11T22:10:28.099Z,98960.49
2019-05-11T22:15:31.074Z,98975.92
2019-05-11T22:20:34.395Z,98989.38
2019-05-11T22:25:38.345Z,98995.34
2019-05-11T22:30:41.761Z,99007.55
2019-05-11T22:35:45.061Z,99016.20
2019-05-11T22:40:48.821Z,99026.30
2019-05-11T22:45:52.178Z,99037.38
2019-05-11T22:50:55.495Z,99040.61
2019-05-11T22:55:58.794Z,99042.69
2019-05-11T23:01:02.087Z,99039.38
2019-05-11T23:06:05.401Z,99053.97
2019-05-11T23:11:10.564Z,99055.84
2019-05-11T23:16:13.741Z,99078.37
2019-05-11T23:21:17.059Z,99093.29
2019-05-11T23:26:20.356Z,99105.49
2019-05-11T23:31:23.736Z,99121.96
2019-05-11T23:36:27.972Z,99129.27
2019-05-11T23:41:31.619Z,99145.84
2019-05-11T23:46:34.944Z,99150.75
2019-05-11T23:51:38.833Z,99178.70
2019-05-11T23:56:42.195Z,99181.62
